createdAt,value
2023-01-19T00:01:35.411Z,99.62
2023-01-19T00:04:05.786Z,99.73
2023-01-19T00:06:35.852Z,99.44
2023-01-19T00:09:06.449Z,99.87
2023-01-19T00:11:39.295Z,100.00
2023-01-19T00:14:09.360Z,99.90
2023-01-19T00:16:39.335Z,99.59
2023-01-19T00:19:09.365Z,98.58
2023-01-19T00:21:39.381Z,97.46
2023-01-19T00:24:09.873Z,96.51
2023-01-19T00:26:42.998Z,95.28
2023-01-19T00:29:13.847Z,93.80
2023-01-19T00:31:44.693Z,93.24
2023-01-19T00:34:14.731Z,92.41
2023-01-19T00:36:45.388Z,91.37
2023-01-19T00:39:15.389Z,90.42
2023-01-19T00:42:00.301Z,90.26
2023-01-19T00:44:30.399Z,89.48
2023-01-19T00:47:01.222Z,89.05
2023-01-19T00:49:31.293Z,89.42
2023-01-19T00:52:01.374Z,88.85
2023-01-19T00:54:31.393Z,89.28
2023-01-19T00:57:04.457Z,88.85
2023-01-19T00:59:34.575Z,88.99
2023-01-19T01:02:04.738Z,88.79
2023-01-19T01:04:35.111Z,88.67
2023-01-19T01:07:05.189Z,88.78
2023-01-19T01:09:35.344Z,89.04
2023-01-19T01:12:08.206Z,88.97
2023-01-19T01:14:38.549Z,88.97
2023-01-19T01:17:11.484Z,89.15
2023-01-19T01:19:41.731Z,89.38
2023-01-19T01:22:12.795Z,89.23
2023-01-19T01:24:42.617Z,89.43
2023-01-19T01:27:15.265Z,89.10
2023-01-19T01:29:46.652Z,89.18
2023-01-19T01:32:16.809Z,88.92
2023-01-19T01:34:46.842Z,89.07
2023-01-19T01:37:16.794Z,88.24
2023-01-19T01:39:46.776Z,88.46
2023-01-19T01:42:22.944Z,88.17
2023-01-19T01:44:55.425Z,87.42
2023-01-19T01:47:33.864Z,87.11
2023-01-19T01:50:10.983Z,87.23
2023-01-19T01:53:06.459Z,87.64
2023-01-19T01:55:39.908Z,87.47
2023-01-19T01:58:14.368Z,87.75
2023-01-19T02:00:56.822Z,87.65
2023-01-19T02:03:28.476Z,87.30
2023-01-19T02:06:03.215Z,87.19
2023-01-19T02:08:50.764Z,87.65
2023-01-19T02:11:33.208Z,87.51
2023-01-19T02:14:07.451Z,87.37
2023-01-19T02:16:37.946Z,87.18
2023-01-19T02:19:10.348Z,87.07
2023-01-19T02:21:49.556Z,86.68
2023-01-19T02:24:22.724Z,86.45
2023-01-19T02:26:54.134Z,86.13
2023-01-19T02:29:26.631Z,85.42
2023-01-19T02:31:57.536Z,85.55
2023-01-19T02:34:27.588Z,85.55
2023-01-19T02:36:59.529Z,85.71
2023-01-19T02:39:37.478Z,85.05
2023-01-19T02:42:12.748Z,85.44
2023-01-19T02:44:46.418Z,85.12
2023-01-19T02:47:17.013Z,85.34
2023-01-19T02:49:47.651Z,85.56
2023-01-19T02:52:20.696Z,85.88
2023-01-19T02:55:05.855Z,86.03
2023-01-19T02:57:50.790Z,86.30
2023-01-19T03:00:33.762Z,86.11
2023-01-19T03:03:21.215Z,86.21
2023-01-19T03:06:07.603Z,86.68
2023-01-19T03:08:47.984Z,86.42
2023-01-19T03:11:20.744Z,86.49
2023-01-19T03:13:55.521Z,86.00
2023-01-19T03:16:33.103Z,86.40
2023-01-19T03:19:09.448Z,86.31
2023-01-19T03:21:42.961Z,86.43
2023-01-19T03:24:15.601Z,86.20
2023-01-19T03:26:52.301Z,86.41
2023-01-19T03:29:25.468Z,86.70
2023-01-19T03:31:56.959Z,86.14
2023-01-19T03:34:28.655Z,84.84
2023-01-19T03:37:02.820Z,84.12
2023-01-19T03:39:33.300Z,84.28
2023-01-19T03:42:11.377Z,84.20
2023-01-19T03:44:44.190Z,83.12
2023-01-19T03:47:16.382Z,82.93
2023-01-19T03:49:49.157Z,82.74
2023-01-19T03:52:19.426Z,82.73
2023-01-19T03:54:49.800Z,82.02
2023-01-19T03:57:22.461Z,82.70
2023-01-19T03:59:53.563Z,82.96
2023-01-19T04:02:23.306Z,82.99
2023-01-19T04:04:53.608Z,83.28
2023-01-19T04:07:23.566Z,83.25
2023-01-19T04:09:53.645Z,83.08
2023-01-19T04:12:26.268Z,82.54
2023-01-19T04:14:56.339Z,82.62
2023-01-19T04:17:26.373Z,82.85
2023-01-19T04:19:56.477Z,82.39
2023-01-19T04:22:26.539Z,81.82
2023-01-19T04:24:56.620Z,81.34
2023-01-19T04:27:29.275Z,81.62
2023-01-19T04:30:00.496Z,81.84
2023-01-19T04:32:30.806Z,81.34
2023-01-19T04:35:01.035Z,81.03
2023-01-19T04:37:31.141Z,80.92
2023-01-19T04:40:01.190Z,81.52
2023-01-19T04:42:33.847Z,81.69
2023-01-19T04:45:04.054Z,81.42
2023-01-19T04:47:34.047Z,80.72
2023-01-19T04:50:05.855Z,80.90
2023-01-19T04:52:37.467Z,81.35
2023-01-19T04:55:08.922Z,81.92
2023-01-19T04:57:41.553Z,82.28
2023-01-19T05:00:13.340Z,82.30
2023-01-19T05:02:45.359Z,82.88
2023-01-19T05:05:15.708Z,82.83
2023-01-19T05:07:47.101Z,82.92
2023-01-19T05:10:17.181Z,82.58
2023-01-19T05:12:49.842Z,82.52
2023-01-19T05:15:19.959Z,82.53
2023-01-19T05:17:50.058Z,82.49
2023-01-19T05:20:20.630Z,82.88
2023-01-19T05:22:54.783Z,82.87
2023-01-19T05:25:25.014Z,83.40
2023-01-19T05:27:58.079Z,83.38
2023-01-19T05:30:28.263Z,83.49
2023-01-19T05:32:58.766Z,83.24
2023-01-19T05:35:35.651Z,83.81
2023-01-19T05:38:06.411Z,83.86
2023-01-19T05:40:36.389Z,83.57
2023-01-19T05:43:09.068Z,83.69
2023-01-19T05:45:39.114Z,83.29
2023-01-19T05:48:10.295Z,82.84
2023-01-19T05:50:40.396Z,82.54
2023-01-19T05:53:10.414Z,83.15
2023-01-19T05:55:40.486Z,83.07
2023-01-19T05:58:13.116Z,82.68
2023-01-19T06:00:43.408Z,83.11
2023-01-19T06:03:13.458Z,83.81
2023-01-19T06:05:43.517Z,83.83
2023-01-19T06:08:13.597Z,83.67
2023-01-19T06:10:43.803Z,83.55
2023-01-19T06:13:16.483Z,83.27
2023-01-19T06:15:47.465Z,83.22
2023-01-19T06:18:17.809Z,83.10
2023-01-19T06:20:47.848Z,82.77
2023-01-19T06:23:17.924Z,82.37
2023-01-19T06:25:48.066Z,82.44
2023-01-19T06:28:20.775Z,82.72
2023-01-19T06:30:52.680Z,82.36
2023-01-19T06:33:23.131Z,82.41
2023-01-19T06:35:53.935Z,82.47
2023-01-19T06:38:24.025Z,82.46
2023-01-19T06:40:58.796Z,82.42
2023-01-19T06:43:31.660Z,82.67
2023-01-19T06:46:02.456Z,81.80
2023-01-19T06:48:32.647Z,82.36
2023-01-19T06:51:02.842Z,83.30
2023-01-19T06:53:32.877Z,83.62
2023-01-19T06:56:04.764Z,83.92
2023-01-19T06:58:37.882Z,84.32
2023-01-19T07:01:09.338Z,83.68
2023-01-19T07:03:40.383Z,84.40
2023-01-19T07:06:10.510Z,84.53
2023-01-19T07:08:41.737Z,85.57
2023-01-19T07:11:23.118Z,85.97
2023-01-19T07:14:01.175Z,86.57
2023-01-19T07:16:31.284Z,86.52
2023-01-19T07:19:01.457Z,86.88
2023-01-19T07:21:31.602Z,87.37
2023-01-19T07:24:01.687Z,87.68
2023-01-19T07:26:31.698Z,88.24
2023-01-19T07:29:04.333Z,88.32
2023-01-19T07:31:34.597Z,88.34
2023-01-19T07:34:05.631Z,88.69
2023-01-19T07:36:36.004Z,88.89
2023-01-19T07:39:06.333Z,89.46
2023-01-19T07:41:36.299Z,89.61
2023-01-19T07:44:13.212Z,89.63
2023-01-19T07:46:43.513Z,88.86
2023-01-19T07:49:13.594Z,88.75
2023-01-19T07:51:43.828Z,89.27
2023-01-19T07:54:13.981Z,89.42
2023-01-19T07:56:44.300Z,88.80
2023-01-19T07:59:17.881Z,88.65
2023-01-19T08:01:48.035Z,88.22
2023-01-19T08:04:19.213Z,87.85
2023-01-19T08:06:50.091Z,87.79
2023-01-19T08:09:20.912Z,88.06
2023-01-19T08:11:50.943Z,88.00
2023-01-19T08:14:23.621Z,86.91
2023-01-19T08:16:53.607Z,86.11
2023-01-19T08:19:23.855Z,85.60
2023-01-19T08:21:53.862Z,85.38
2023-01-19T08:24:28.637Z,85.21
2023-01-19T08:27:02.582Z,85.68
2023-01-19T08:29:35.384Z,84.53
2023-01-19T08:32:06.126Z,84.91
2023-01-19T08:34:36.457Z,84.43
2023-01-19T08:37:06.571Z,83.73
2023-01-19T08:39:36.791Z,83.27
2023-01-19T08:42:06.813Z,82.94
2023-01-19T08:44:49.631Z,81.96
2023-01-19T08:47:27.162Z,81.83
2023-01-19T08:49:57.235Z,82.06
2023-01-19T08:52:29.492Z,82.01
2023-01-19T08:55:00.021Z,80.01
2023-01-19T08:57:30.760Z,80.44
2023-01-19T09:00:04.616Z,80.46
2023-01-19T09:02:35.018Z,79.49
2023-01-19T09:05:05.534Z,79.05
2023-01-19T09:07:35.811Z,79.89
2023-01-19T09:10:06.481Z,79.63
2023-01-19T09:12:36.832Z,80.31
2023-01-19T09:15:12.493Z,79.19
2023-01-19T09:17:42.972Z,79.95
2023-01-19T09:20:14.148Z,79.74
2023-01-19T09:22:43.828Z,80.54
2023-01-19T09:25:13.830Z,81.76
2023-01-19T09:27:43.899Z,81.03
2023-01-19T09:30:17.331Z,81.63
2023-01-19T09:32:48.041Z,82.03
2023-01-19T09:35:18.237Z,82.20
2023-01-19T09:37:50.098Z,80.39
2023-01-19T09:40:21.943Z,80.09
2023-01-19T09:42:57.171Z,80.84
2023-01-19T09:45:37.907Z,81.76
2023-01-19T09:48:16.530Z,75.47
2023-01-19T09:50:48.581Z,74.05
2023-01-19T09:53:24.785Z,74.91
2023-01-19T09:55:54.793Z,74.31
2023-01-19T09:58:26.770Z,72.94
2023-01-19T10:01:08.436Z,71.87
2023-01-19T10:03:43.675Z,73.32
2023-01-19T10:06:17.556Z,70.51
2023-01-19T10:08:54.714Z,71.58
2023-01-19T10:11:51.259Z,71.34
2023-01-19T10:14:29.270Z,72.74
2023-01-19T10:17:15.126Z,71.00
2023-01-19T10:19:50.962Z,71.56
2023-01-19T10:22:24.422Z,70.21
2023-01-19T10:24:58.811Z,72.22
2023-01-19T10:27:34.339Z,72.11
2023-01-19T10:30:04.967Z,72.47
2023-01-19T10:32:39.830Z,70.93
2023-01-19T10:35:23.554Z,66.24
2023-01-19T10:37:56.238Z,66.78
2023-01-19T10:40:35.074Z,67.14
2023-01-19T10:43:25.126Z,68.11
2023-01-19T10:45:55.434Z,67.25
2023-01-19T10:48:28.275Z,64.72
2023-01-19T10:51:06.578Z,66.70
2023-01-19T10:53:40.477Z,67.95
2023-01-19T10:56:20.351Z,63.75
2023-01-19T10:58:50.478Z,64.60
2023-01-19T11:01:24.004Z,59.66
2023-01-19T11:04:05.654Z,62.53
2023-01-19T11:06:36.486Z,60.32
2023-01-19T11:09:24.155Z,59.56
2023-01-19T11:11:56.967Z,60.08
2023-01-19T11:14:29.194Z,62.21
2023-01-19T11:17:01.013Z,61.38
2023-01-19T11:19:36.153Z,60.66
2023-01-19T11:22:21.916Z,61.25
2023-01-19T11:24:52.713Z,62.95
2023-01-19T11:27:23.989Z,62.19
2023-01-19T11:30:01.875Z,62.74
2023-01-19T11:32:33.368Z,62.65
2023-01-19T11:35:27.620Z,61.12
2023-01-19T11:38:19.015Z,64.68
2023-01-19T11:40:57.803Z,71.31
2023-01-19T11:43:43.471Z,79.53
2023-01-19T11:46:19.665Z,81.76
2023-01-19T11:48:57.546Z,84.90
2023-01-19T11:51:33.738Z,84.29
2023-01-19T11:54:08.827Z,85.20
2023-01-19T11:56:39.125Z,84.72
2023-01-19T11:59:15.304Z,84.06
2023-01-19T12:01:54.823Z,84.41
2023-01-19T12:04:30.955Z,87.19
2023-01-19T12:07:10.281Z,88.74
2023-01-19T12:09:47.465Z,89.88
2023-01-19T12:12:27.444Z,92.98
2023-01-19T12:15:03.452Z,95.65
2023-01-19T12:17:38.076Z,97.87
2023-01-19T12:20:19.240Z,98.44
2023-01-19T12:22:55.934Z,97.66
2023-01-19T12:25:32.252Z,96.93
2023-01-19T12:28:03.004Z,94.67
2023-01-19T12:30:33.576Z,90.35
2023-01-19T12:33:25.473Z,88.00
2023-01-19T12:36:01.103Z,89.77
2023-01-19T12:38:44.003Z,87.89
2023-01-19T12:41:31.534Z,86.79
2023-01-19T12:44:27.868Z,86.83
2023-01-19T12:47:04.273Z,88.01
2023-01-19T12:49:38.303Z,84.24
2023-01-19T12:52:36.248Z,85.15
2023-01-19T12:55:22.988Z,84.84
2023-01-19T12:57:59.843Z,83.48
2023-01-19T13:00:39.024Z,82.33
2023-01-19T13:03:44.223Z,86.70
2023-01-19T13:06:14.437Z,90.70
2023-01-19T13:09:03.753Z,92.22
2023-01-19T13:11:36.538Z,92.33
2023-01-19T13:14:38.795Z,92.91
2023-01-19T13:17:27.472Z,93.08
2023-01-19T13:20:14.626Z,92.41
2023-01-19T13:23:22.620Z,92.60
2023-01-19T13:25:56.410Z,93.52
2023-01-19T13:28:35.330Z,93.68
2023-01-19T13:31:07.150Z,92.93
2023-01-19T13:33:46.732Z,94.34
2023-01-19T13:36:23.419Z,93.92
2023-01-19T13:38:55.154Z,94.48
2023-01-19T13:41:27.863Z,94.15
2023-01-19T13:44:04.315Z,94.43
2023-01-19T13:46:35.024Z,94.78
2023-01-19T13:49:15.469Z,94.63
2023-01-19T13:51:45.606Z,95.40
2023-01-19T13:54:19.438Z,94.92
2023-01-19T13:56:54.861Z,93.22
2023-01-19T13:59:27.503Z,93.62
2023-01-19T14:01:58.336Z,92.67
2023-01-19T14:04:31.323Z,93.11
2023-01-19T14:07:05.384Z,93.54
2023-01-19T14:09:35.464Z,93.70
2023-01-19T14:12:17.685Z,94.49
2023-01-19T14:14:50.407Z,93.65
2023-01-19T14:17:32.365Z,92.87
2023-01-19T14:20:05.609Z,93.49
2023-01-19T14:22:43.916Z,93.17
2023-01-19T14:25:32.498Z,91.66
2023-01-19T14:28:30.632Z,91.09
2023-01-19T14:31:05.011Z,91.16
2023-01-19T14:33:46.282Z,92.06
2023-01-19T14:36:31.391Z,92.62
2023-01-19T14:39:03.573Z,92.96
2023-01-19T14:41:41.022Z,92.01
2023-01-19T14:44:12.723Z,90.77
2023-01-19T14:46:49.540Z,90.92
2023-01-19T14:49:23.560Z,92.06
2023-01-19T14:51:54.543Z,92.63
2023-01-19T14:54:32.356Z,91.65
2023-01-19T14:57:03.066Z,92.16
2023-01-19T14:59:35.725Z,92.02
2023-01-19T15:02:08.851Z,91.80
2023-01-19T15:04:38.977Z,91.66
2023-01-19T15:07:09.600Z,91.52
2023-01-19T15:09:40.093Z,91.43
2023-01-19T15:12:17.176Z,92.08
2023-01-19T15:14:48.092Z,91.87
2023-01-19T15:17:25.803Z,92.70
2023-01-19T15:19:56.951Z,92.18
2023-01-19T15:22:30.135Z,92.14
2023-01-19T15:25:00.502Z,91.68
2023-01-19T15:27:30.661Z,91.68
2023-01-19T15:30:00.911Z,91.04
2023-01-19T15:32:33.506Z,91.67
2023-01-19T15:35:03.705Z,91.80
2023-01-19T15:37:33.775Z,89.52
2023-01-19T15:40:03.830Z,88.18
2023-01-19T15:42:33.843Z,87.68
2023-01-19T15:45:04.173Z,87.86
2023-01-19T15:47:36.835Z,88.08
2023-01-19T15:50:09.783Z,87.71
2023-01-19T15:52:39.831Z,87.64
2023-01-19T15:55:16.062Z,87.65
2023-01-19T15:57:46.513Z,87.42
2023-01-19T16:00:18.021Z,87.03
2023-01-19T16:02:52.200Z,87.09
2023-01-19T16:05:25.991Z,87.74
2023-01-19T16:08:02.000Z,88.75
2023-01-19T16:10:32.179Z,89.15
2023-01-19T16:13:02.353Z,89.13
2023-01-19T16:15:32.529Z,89.86
2023-01-19T16:18:05.341Z,90.08
2023-01-19T16:20:35.550Z,90.63
2023-01-19T16:23:21.359Z,90.82
2023-01-19T16:25:59.148Z,91.13
2023-01-19T16:28:30.261Z,91.42
2023-01-19T16:31:00.691Z,91.43
2023-01-19T16:33:33.641Z,91.21
2023-01-19T16:36:20.907Z,90.37
2023-01-19T16:38:51.074Z,90.02
2023-01-19T16:41:21.291Z,88.62
2023-01-19T16:43:58.737Z,88.61
2023-01-19T16:46:34.082Z,88.25
2023-01-19T16:49:08.756Z,87.46
2023-01-19T16:51:39.002Z,87.97
2023-01-19T16:54:10.857Z,87.94
2023-01-19T16:56:41.596Z,87.45
2023-01-19T16:59:14.796Z,87.13
2023-01-19T17:01:46.044Z,87.20
2023-01-19T17:04:19.874Z,86.87
2023-01-19T17:06:50.201Z,86.91
2023-01-19T17:09:21.126Z,86.70
2023-01-19T17:11:51.241Z,87.23
2023-01-19T17:14:22.857Z,87.75
2023-01-19T17:16:53.212Z,87.30
2023-01-19T17:19:26.955Z,88.33
2023-01-19T17:21:56.961Z,87.87
2023-01-19T17:24:27.088Z,88.11
2023-01-19T17:26:57.155Z,87.71
2023-01-19T17:29:27.478Z,87.37
2023-01-19T17:31:57.542Z,86.96
2023-01-19T17:34:30.171Z,86.92
2023-01-19T17:37:03.364Z,86.15
2023-01-19T17:39:33.583Z,86.60
2023-01-19T17:42:03.777Z,85.49
2023-01-19T17:44:33.807Z,85.90
2023-01-19T17:47:04.001Z,85.76
2023-01-19T17:49:37.278Z,86.28
2023-01-19T17:52:08.054Z,85.27
2023-01-19T17:54:38.483Z,84.94
2023-01-19T17:57:08.947Z,85.08
2023-01-19T17:59:41.162Z,85.49
2023-01-19T18:02:12.604Z,85.97
2023-01-19T18:04:45.634Z,86.39
2023-01-19T18:07:15.737Z,85.70
2023-01-19T18:09:45.746Z,85.35
2023-01-19T18:12:16.149Z,85.89
2023-01-19T18:14:46.209Z,85.36
2023-01-19T18:17:16.402Z,85.61
2023-01-19T18:19:49.270Z,86.03
2023-01-19T18:22:19.656Z,84.94
2023-01-19T18:24:49.777Z,83.80
2023-01-19T18:27:22.021Z,82.86
2023-01-19T18:29:52.093Z,82.96
2023-01-19T18:32:22.150Z,82.81
2023-01-19T18:34:54.803Z,82.71
2023-01-19T18:37:24.819Z,81.92
2023-01-19T18:39:59.856Z,82.17
2023-01-19T18:42:29.973Z,80.98
2023-01-19T18:45:00.701Z,80.79
2023-01-19T18:47:30.822Z,80.67
2023-01-19T18:50:03.518Z,80.97
2023-01-19T18:52:34.075Z,80.73
2023-01-19T18:55:05.023Z,80.12
2023-01-19T18:57:34.829Z,79.58
2023-01-19T19:00:05.740Z,80.57
2023-01-19T19:02:35.915Z,80.99
2023-01-19T19:05:09.644Z,81.10
2023-01-19T19:07:39.794Z,82.14
2023-01-19T19:10:11.611Z,82.02
2023-01-19T19:12:41.879Z,81.62
2023-01-19T19:15:14.090Z,82.12
2023-01-19T19:17:44.199Z,81.96
2023-01-19T19:20:17.499Z,80.55
2023-01-19T19:22:47.621Z,80.10
2023-01-19T19:25:18.041Z,80.44
2023-01-19T19:27:48.401Z,79.69
2023-01-19T19:30:19.903Z,80.29
2023-01-19T19:32:56.494Z,80.85
2023-01-19T19:35:29.669Z,81.42
2023-01-19T19:38:00.213Z,81.55
2023-01-19T19:40:31.090Z,81.99
2023-01-19T19:43:01.056Z,81.83
2023-01-19T19:45:31.051Z,82.60
2023-01-19T19:48:01.152Z,83.22
2023-01-19T19:50:33.958Z,83.55
2023-01-19T19:53:04.023Z,84.03
2023-01-19T19:55:34.387Z,84.19
2023-01-19T19:58:04.556Z,84.44
2023-01-19T20:00:34.680Z,84.24
2023-01-19T20:03:05.124Z,83.97
2023-01-19T20:05:38.764Z,84.27
2023-01-19T20:08:09.040Z,83.53
2023-01-19T20:10:39.369Z,84.25
2023-01-19T20:13:10.478Z,84.01
2023-01-19T20:15:40.810Z,84.49
2023-01-19T20:18:11.204Z,85.24
2023-01-19T20:20:45.223Z,86.13
2023-01-19T20:23:16.500Z,86.11
2023-01-19T20:25:46.704Z,86.45
2023-01-19T20:28:16.927Z,86.73
2023-01-19T20:30:47.113Z,87.23
2023-01-19T20:33:17.443Z,86.87
2023-01-19T20:35:52.153Z,86.68
2023-01-19T20:38:22.297Z,86.44
2023-01-19T20:40:52.455Z,86.39
2023-01-19T20:43:22.615Z,87.39
2023-01-19T20:45:52.871Z,88.03
2023-01-19T20:48:23.236Z,88.58
2023-01-19T20:51:00.917Z,89.71
2023-01-19T20:53:32.345Z,89.77
2023-01-19T20:56:06.234Z,89.55
2023-01-19T20:58:36.617Z,89.46
2023-01-19T21:01:13.914Z,90.17
2023-01-19T21:03:44.263Z,90.35
2023-01-19T21:06:18.261Z,91.08
2023-01-19T21:08:49.921Z,91.73
2023-01-19T21:11:23.967Z,91.49
2023-01-19T21:13:56.339Z,91.02
2023-01-19T21:16:27.883Z,90.74
2023-01-19T21:18:58.645Z,90.91
2023-01-19T21:21:32.064Z,91.45
2023-01-19T21:24:03.989Z,91.13
2023-01-19T21:26:34.394Z,91.23
2023-01-19T21:29:05.842Z,90.17
2023-01-19T21:31:36.011Z,89.59
2023-01-19T21:34:06.115Z,89.91
2023-01-19T21:36:39.314Z,89.31
2023-01-19T21:39:09.521Z,88.94
2023-01-19T21:41:43.038Z,89.08
2023-01-19T21:44:15.312Z,89.29
2023-01-19T21:46:45.620Z,90.69
2023-01-19T21:49:20.950Z,90.39
2023-01-19T21:51:54.302Z,90.92
2023-01-19T21:54:24.328Z,91.48
2023-01-19T21:56:54.469Z,91.26
2023-01-19T21:59:24.669Z,90.74
2023-01-19T22:01:54.938Z,91.55
2023-01-19T22:04:25.170Z,92.12
2023-01-19T22:06:58.018Z,91.11
2023-01-19T22:09:28.237Z,91.53
2023-01-19T22:11:58.554Z,92.02
2023-01-19T22:14:28.739Z,92.31
2023-01-19T22:16:59.372Z,92.82
2023-01-19T22:19:29.623Z,92.79
2023-01-19T22:22:02.289Z,93.75
2023-01-19T22:24:32.319Z,93.36
2023-01-19T22:27:02.358Z,93.78
2023-01-19T22:29:32.572Z,93.68
2023-01-19T22:32:03.112Z,94.75
2023-01-19T22:34:33.504Z,94.12
2023-01-19T22:37:07.013Z,94.94
2023-01-19T22:39:37.624Z,95.28
2023-01-19T22:42:07.715Z,95.19
2023-01-19T22:44:38.490Z,95.10
2023-01-19T22:47:08.974Z,95.18
2023-01-19T22:49:39.368Z,95.21
2023-01-19T22:52:12.648Z,96.39
2023-01-19T22:54:43.314Z,96.20
2023-01-19T22:57:14.119Z,96.60
2023-01-19T22:59:44.121Z,96.89
2023-01-19T23:02:14.222Z,95.62
2023-01-19T23:04:44.379Z,95.12
2023-01-19T23:07:16.987Z,95.62
2023-01-19T23:09:47.818Z,95.75
2023-01-19T23:12:17.902Z,95.35
2023-01-19T23:14:48.158Z,95.36
2023-01-19T23:17:18.238Z,94.39
2023-01-19T23:19:48.742Z,94.25
2023-01-19T23:22:21.566Z,94.57
2023-01-19T23:24:51.569Z,95.65
2023-01-19T23:27:21.861Z,95.65
2023-01-19T23:29:51.994Z,95.35
2023-01-19T23:32:22.367Z,96.09
2023-01-19T23:34:52.451Z,94.92
2023-01-19T23:37:25.981Z,96.22
2023-01-19T23:39:56.072Z,97.43
2023-01-19T23:42:26.247Z,97.16
2023-01-19T23:44:56.249Z,97.10
2023-01-19T23:47:26.361Z,97.61
2023-01-19T23:49:56.497Z,97.52
2023-01-19T23:52:29.218Z,97.65
2023-01-19T23:54:59.228Z,98.34
2023-01-19T23:57:29.693Z,99.63
